createdAt,value
2022-08-17T09:53:44.649Z,62
2022-08-17T10:03:43.146Z,61
2022-08-17T10:13:47.238Z,61
2022-08-17T10:23:44.792Z,61
2022-08-17T10:33:45.035Z,62
2022-08-17T10:43:54.419Z,62
2022-08-17T11:03:46.732Z,63
2022-08-17T11:23:47.182Z,64
2022-08-17T11:53:48.973Z,66
2022-08-17T12:13:49.512Z,67
2022-08-17T12:23:49.602Z,67
2022-08-17T12:33:49.736Z,67
2022-08-17T12:43:50.260Z,68
2022-08-17T12:53:51.025Z,68
2022-08-17T13:03:51.615Z,68
2022-08-17T13:13:52.099Z,67
2022-08-17T13:23:53.792Z,67
2022-08-17T13:33:53.382Z,66
2022-08-17T13:43:54.109Z,66
2022-08-17T13:53:54.286Z,65
2022-08-17T14:03:55.175Z,68
2022-08-17T14:04:17.115Z,68
2022-08-17T14:14:00.935Z,70
2022-08-17T14:24:01.427Z,70
2022-08-17T14:34:01.651Z,71
2022-08-17T14:44:01.759Z,69
2022-08-17T14:54:02.098Z,67
2022-08-17T15:04:03.216Z,69
2022-08-17T15:14:03.375Z,69
2022-08-17T15:24:03.644Z,70
2022-08-17T15:34:03.764Z,72
2022-08-17T15:44:04.093Z,73
2022-08-17T15:54:17.197Z,73
2022-08-17T16:04:06.849Z,73
2022-08-17T16:14:06.167Z,73
2022-08-17T16:24:06.312Z,74
2022-08-17T16:34:16.479Z,73
2022-08-17T16:44:08.036Z,74
2022-08-17T17:04:09.470Z,74
2022-08-17T17:14:10.134Z,74
2022-08-17T17:24:10.242Z,76
2022-08-17T17:34:10.395Z,76
2022-08-17T17:44:10.771Z,77
2022-08-17T17:54:11.154Z,78
2022-08-17T18:04:17.077Z,79
2022-08-17T18:24:12.842Z,80
2022-08-17T18:34:29.333Z,80
2022-08-17T18:44:13.598Z,82
2022-08-17T19:04:15.481Z,84
2022-08-17T19:14:15.827Z,85
2022-08-17T19:24:15.762Z,86
2022-08-17T19:34:15.923Z,87
2022-08-17T19:44:16.817Z,88
2022-08-17T19:54:17.114Z,88
2022-08-17T20:04:17.266Z,89
2022-08-17T20:14:18.120Z,90
2022-08-17T20:24:18.312Z,91
2022-08-17T20:34:18.969Z,92
2022-08-17T20:44:19.262Z,93
2022-08-17T20:54:19.417Z,93
2022-08-17T21:04:20.513Z,93
2022-08-17T21:14:21.549Z,93
2022-08-17T21:24:22.495Z,94
2022-08-17T21:34:23.395Z,94
2022-08-17T21:44:26.744Z,95
2022-08-17T21:54:24.474Z,96
2022-08-17T22:04:24.832Z,96
2022-08-17T22:14:25.932Z,97
2022-08-17T22:24:26.928Z,97
2022-08-17T22:34:27.136Z,98
2022-08-17T22:44:27.524Z,98
2022-08-17T22:54:27.999Z,99
2022-08-17T23:04:28.827Z,99
2022-08-17T23:14:29.710Z,99
2022-08-17T23:24:30.515Z,100
2022-08-17T23:34:30.966Z,100
2022-08-17T23:44:31.143Z,100
2022-08-17T23:54:31.322Z,100
